createdAt,value
2023-12-14T00:01:37.215Z,97530.27
2023-12-14T00:04:51.736Z,97522.53
2023-12-14T00:08:04.305Z,97519.94
2023-12-14T00:11:17.873Z,97530.30
2023-12-14T00:14:30.284Z,97532.51
2023-12-14T00:17:42.904Z,97532.51
2023-12-14T00:20:55.575Z,97542.31
2023-12-14T00:24:09.161Z,97539.92
2023-12-14T00:27:21.922Z,97538.28
2023-12-14T00:30:34.098Z,97547.94
2023-12-14T00:33:46.762Z,97555.44
2023-12-14T00:36:59.489Z,97552.11
2023-12-14T00:40:13.897Z,97548.78
2023-12-14T00:43:26.153Z,97551.64
2023-12-14T00:46:38.492Z,97556.47
2023-12-14T00:49:50.947Z,97567.67
2023-12-14T00:53:03.163Z,97574.33
2023-12-14T00:56:18.613Z,97571.00
2023-12-14T00:59:32.064Z,97575.55
2023-12-14T01:02:47.239Z,97571.43
2023-12-14T01:05:59.643Z,97569.27
2023-12-14T01:09:12.260Z,97579.30
2023-12-14T01:12:24.612Z,97582.44
2023-12-14T01:15:39.120Z,97586.99
2023-12-14T01:18:51.584Z,97588.67
2023-12-14T01:22:06.059Z,97583.85
2023-12-14T01:25:19.312Z,97585.53
2023-12-14T01:28:31.735Z,97584.42
2023-12-14T01:31:44.286Z,97580.33
2023-12-14T01:34:56.571Z,97575.22
2023-12-14T01:38:08.985Z,97576.86
2023-12-14T01:41:21.543Z,97575.78
2023-12-14T01:44:36.262Z,97578.65
2023-12-14T01:47:48.967Z,97570.67
2023-12-14T01:51:01.310Z,97580.47
2023-12-14T01:54:13.566Z,97581.41
2023-12-14T01:57:25.821Z,97585.72
2023-12-14T02:00:45.240Z,97585.72
2023-12-14T02:04:00.541Z,97576.10
2023-12-14T02:07:13.211Z,97570.99
2023-12-14T02:10:25.634Z,97573.09
2023-12-14T02:13:40.451Z,97570.22
2023-12-14T02:16:53.003Z,97579.75
2023-12-14T02:20:05.505Z,97576.32
2023-12-14T02:23:17.994Z,97577.97
2023-12-14T02:26:30.565Z,97580.45
2023-12-14T02:29:42.968Z,97584.90
2023-12-14T02:32:55.227Z,97597.89
2023-12-14T02:36:08.547Z,97596.03
2023-12-14T02:39:20.967Z,97599.50
2023-12-14T02:42:33.726Z,97616.23
2023-12-14T02:45:46.304Z,97612.31
2023-12-14T02:49:01.232Z,97621.69
2023-12-14T02:52:16.460Z,97632.05
2023-12-14T02:55:28.463Z,97629.70
2023-12-14T02:58:40.947Z,97632.46
2023-12-14T03:01:53.251Z,97630.78
2023-12-14T03:05:06.851Z,97637.17
2023-12-14T03:08:20.018Z,97633.88
2023-12-14T03:11:32.751Z,97642.56
2023-12-14T03:14:45.723Z,97638.58
2023-12-14T03:17:58.503Z,97641.09
2023-12-14T03:21:13.663Z,97650.48
2023-12-14T03:24:25.981Z,97658.36
2023-12-14T03:27:38.111Z,97651.98
2023-12-14T03:30:52.481Z,97651.66
2023-12-14T03:34:06.959Z,97650.84
2023-12-14T03:37:19.437Z,97662.09
2023-12-14T03:40:34.039Z,97665.43
2023-12-14T03:43:46.383Z,97675.18
2023-12-14T03:46:59.567Z,97675.89
2023-12-14T03:50:16.501Z,97682.73
2023-12-14T03:53:28.734Z,97681.18
2023-12-14T03:56:41.300Z,97682.27
2023-12-14T03:59:55.681Z,97687.41
2023-12-14T04:03:08.004Z,97702.89
2023-12-14T04:06:21.817Z,97708.84
2023-12-14T04:09:33.804Z,97718.64
2023-12-14T04:12:46.943Z,97724.60
2023-12-14T04:15:59.321Z,97730.13
2023-12-14T04:19:14.097Z,97728.70
2023-12-14T04:22:28.769Z,97734.91
2023-12-14T04:25:41.286Z,97737.53
2023-12-14T04:28:53.809Z,97741.13
2023-12-14T04:32:06.365Z,97752.78
2023-12-14T04:35:19.042Z,97752.05
2023-12-14T04:38:31.472Z,97772.52
2023-12-14T04:41:44.146Z,97768.67
2023-12-14T04:44:56.721Z,97769.39
2023-12-14T04:48:09.671Z,97761.50
2023-12-14T04:51:24.509Z,97764.27
2023-12-14T04:54:38.880Z,97781.10
2023-12-14T04:57:52.063Z,97772.08
2023-12-14T05:01:04.749Z,97784.36
2023-12-14T05:04:17.355Z,97794.56
2023-12-14T05:07:31.468Z,97788.80
2023-12-14T05:10:43.904Z,97792.81
2023-12-14T05:13:56.489Z,97801.53
2023-12-14T05:17:09.094Z,97801.17
2023-12-14T05:20:22.238Z,97808.58
2023-12-14T05:23:34.962Z,97811.73
2023-12-14T05:26:47.703Z,97812.23
2023-12-14T05:30:00.231Z,97816.38
2023-12-14T05:33:13.566Z,97812.55
2023-12-14T05:36:26.209Z,97822.47
2023-12-14T05:39:38.667Z,97829.42
2023-12-14T05:42:53.386Z,97835.64
2023-12-14T05:46:06.291Z,97842.55
2023-12-14T05:49:18.794Z,97849.71
2023-12-14T05:52:31.466Z,97851.04
2023-12-14T05:55:47.656Z,97858.79
2023-12-14T05:59:00.721Z,97864.52
2023-12-14T06:02:13.876Z,97867.41
2023-12-14T06:05:26.521Z,97874.44
2023-12-14T06:08:39.113Z,97885.52
2023-12-14T06:11:52.469Z,97881.34
2023-12-14T06:15:05.792Z,97883.38
2023-12-14T06:18:21.211Z,97893.40
2023-12-14T06:21:35.001Z,97892.94
2023-12-14T06:24:49.410Z,97900.81
2023-12-14T06:28:01.710Z,97896.51
2023-12-14T06:31:19.748Z,97897.83
2023-12-14T06:34:31.898Z,97901.04
2023-12-14T06:37:43.839Z,97911.06
2023-12-14T07:29:40.000Z,97988.14
2023-12-14T09:49:05.457Z,98155.44
2023-12-14T10:02:59.424Z,98173.23
2023-12-14T10:11:44.851Z,98175.73
2023-12-14T10:15:47.946Z,98172.27
2023-12-14T10:24:40.118Z,98175.68
2023-12-14T10:28:53.630Z,98173.66
2023-12-14T10:37:37.744Z,98185.00
2023-12-14T10:41:55.084Z,98193.61
2023-12-14T10:46:22.604Z,98206.67
2023-12-14T10:54:28.468Z,98209.78
2023-12-14T10:58:32.618Z,98211.38
2023-12-14T11:02:39.801Z,98220.92
2023-12-14T11:07:22.517Z,98216.96
2023-12-14T11:11:31.936Z,98225.80
2023-12-14T11:20:00.424Z,98228.69
2023-12-14T11:23:46.622Z,98226.78
2023-12-14T11:27:43.285Z,98238.96
2023-12-14T11:41:05.969Z,98238.73
2023-12-14T11:45:10.872Z,98237.89
2023-12-14T11:49:34.087Z,98236.69
2023-12-14T12:01:42.700Z,98243.73
2023-12-14T12:05:20.299Z,98248.55
2023-12-14T12:09:18.164Z,98254.52
2023-12-14T12:13:26.133Z,98264.92
2023-12-14T12:16:54.749Z,98272.22
2023-12-14T12:20:49.437Z,98279.86
2023-12-14T12:25:15.471Z,98285.48
2023-12-14T12:29:10.276Z,98289.91
2023-12-14T12:33:06.455Z,98289.91
2023-12-14T12:37:43.102Z,98286.33
2023-12-14T12:46:00.138Z,98296.13
2023-12-14T12:59:01.620Z,98303.53
2023-12-14T13:03:08.969Z,98316.08
2023-12-14T13:07:22.674Z,98324.35
2023-12-14T13:11:45.937Z,98331.15
2023-12-14T13:29:07.255Z,98354.48
2023-12-14T13:33:29.268Z,98361.05
2023-12-14T13:42:04.781Z,98368.22
2023-12-14T13:45:45.014Z,98371.91
2023-12-14T13:52:36.597Z,98382.30
2023-12-14T14:06:04.039Z,98421.64
2023-12-14T14:10:22.384Z,98432.16
2023-12-14T14:14:25.687Z,98433.84
2023-12-14T14:18:40.803Z,98431.22
2023-12-14T14:22:46.365Z,98444.37
2023-12-14T14:27:47.234Z,98451.53
2023-12-14T14:39:40.736Z,98474.88
2023-12-14T14:44:38.849Z,98488.36
2023-12-14T14:49:32.397Z,98496.25
2023-12-14T14:53:58.797Z,98511.51
2023-12-14T15:03:01.330Z,98515.11
2023-12-14T15:07:01.320Z,98522.03
2023-12-14T15:11:28.090Z,98526.47
2023-12-14T15:20:36.833Z,98522.76
2023-12-14T15:24:47.362Z,98531.73
2023-12-14T15:29:11.361Z,98532.34
2023-12-14T15:32:58.192Z,98532.34
2023-12-14T15:37:03.974Z,98541.16
2023-12-14T15:41:01.835Z,98550.63
2023-12-14T15:45:10.215Z,98551.36
2023-12-14T15:49:14.391Z,98563.66
2023-12-14T15:52:57.597Z,98554.84
2023-12-14T15:59:57.888Z,98574.91
2023-12-14T16:03:50.924Z,98575.36
2023-12-14T16:07:56.547Z,98577.98
2023-12-14T16:18:16.370Z,98594.17
2023-12-14T16:22:53.638Z,98604.49
2023-12-14T16:27:08.605Z,98609.52
2023-12-14T16:40:54.434Z,98631.84
2023-12-14T16:50:19.033Z,98636.88
2023-12-14T20:56:35.970Z,98983.41
2023-12-14T20:59:55.818Z,98987.34
2023-12-14T21:03:11.557Z,98991.11
2023-12-14T21:06:29.283Z,98986.03
2023-12-14T21:09:42.927Z,98999.17
2023-12-14T21:12:58.289Z,99001.63
2023-12-14T21:16:12.114Z,98994.48
2023-12-14T21:19:27.428Z,98995.23
2023-12-14T21:22:42.403Z,99009.87
2023-12-14T21:25:59.252Z,99009.02
2023-12-14T21:29:12.006Z,99013.42
2023-12-14T21:32:27.542Z,99023.02
2023-12-14T21:35:42.622Z,99025.64
2023-12-14T21:38:55.202Z,99032.57
2023-12-14T21:42:10.742Z,99037.83
2023-12-14T21:45:23.452Z,99036.34
2023-12-14T21:48:36.508Z,99043.47
2023-12-14T21:51:51.506Z,99046.00
2023-12-14T21:55:04.167Z,99055.13
2023-12-14T21:58:16.848Z,99065.53
2023-12-14T22:01:31.643Z,99067.23
2023-12-14T22:04:45.862Z,99073.52
2023-12-14T22:07:58.779Z,99082.75
2023-12-14T22:11:13.826Z,99089.51
2023-12-14T22:14:28.847Z,99100.94
2023-12-14T22:17:42.282Z,99101.69
2023-12-14T22:20:57.377Z,99117.28
2023-12-14T22:24:13.275Z,99115.78
2023-12-14T22:27:28.442Z,99124.59
2023-12-14T22:30:41.756Z,99132.66
2023-12-14T22:33:54.250Z,99126.29
2023-12-14T22:37:06.834Z,99138.88
2023-12-14T22:40:21.258Z,99146.00
2023-12-14T22:43:34.926Z,99148.23
2023-12-14T22:46:49.393Z,99148.23
2023-12-14T22:50:01.977Z,99159.48
2023-12-14T22:53:19.609Z,99157.45
2023-12-14T22:56:34.644Z,99158.30
2023-12-14T22:59:47.340Z,99171.88
2023-12-14T23:03:00.930Z,99170.20
2023-12-14T23:06:15.025Z,99179.69
2023-12-14T23:09:27.809Z,99178.94
2023-12-14T23:12:42.715Z,99179.30
2023-12-14T23:15:55.193Z,99191.41
2023-12-14T23:19:07.576Z,99182.09
2023-12-14T23:22:23.921Z,99192.60
2023-12-14T23:25:36.442Z,99198.21
2023-12-14T23:28:49.036Z,99202.64
2023-12-14T23:32:01.590Z,99218.11
2023-12-14T23:35:16.032Z,99208.55
2023-12-14T23:38:28.621Z,99205.83
2023-12-14T23:41:43.380Z,99212.95
2023-12-14T23:44:56.032Z,99213.81
2023-12-14T23:48:09.096Z,99228.31
2023-12-14T23:51:22.250Z,99231.70
2023-12-14T23:54:36.253Z,99231.95
2023-12-14T23:57:48.885Z,99234.33
